Time;durP1;ratioP1;P1;durP2;ratioP2;P2;SDS_P1;SDS_P2;PMS_P1;PMS_P2;Temp;Humidity;BMP_temperature;BMP_pressure;BME280_temperature;BME280_humidity;BME280_pressure;Samples;Min_cycle;Max_cycle;Signal;HPM_P1;HPM_P2
2023/05/07 00:02:22;;;;;;;7.13;4.65;;;17.10;92.90;;;;;;5073974;28;20032;-73
2023/05/07 00:04:48;;;;;;;6.78;4.82;;;17.10;92.70;;;;;;5073934;28;20031;-73
2023/05/07 00:07:14;;;;;;;8.05;5.00;;;17.10;92.70;;;;;;5073851;28;20029;-73
2023/05/07 00:09:40;;;;;;;6.55;4.65;;;17.00;92.60;;;;;;5073918;28;20025;-73
2023/05/07 00:12:07;;;;;;;7.10;5.10;;;17.10;92.60;;;;;;5073800;28;20092;-73
2023/05/07 00:14:32;;;;;;;6.60;5.07;;;17.00;92.60;;;;;;5073771;28;20431;-73
2023/05/07 00:16:58;;;;;;;5.78;4.57;;;17.00;92.50;;;;;;5073746;28;20036;-73
2023/05/07 00:19:24;;;;;;;6.53;5.18;;;17.00;92.40;;;;;;5072614;28;20048;-73
2023/05/07 00:21:49;;;;;;;7.32;4.95;;;17.00;92.40;;;;;;5073576;28;20025;-73
2023/05/07 00:24:15;;;;;;;7.82;5.25;;;17.00;92.40;;;;;;5072743;28;20044;-73
2023/05/07 00:26:41;;;;;;;6.35;4.93;;;17.00;92.30;;;;;;5073523;28;20032;-73
2023/05/07 00:29:06;;;;;;;8.65;4.80;;;17.00;92.70;;;;;;5073499;28;20021;-73
2023/05/07 00:31:32;;;;;;;6.32;4.68;;;17.00;92.30;;;;;;5073462;28;20032;-73
2023/05/07 00:33:58;;;;;;;6.88;4.20;;;17.00;92.20;;;;;;5073311;28;20037;-73
2023/05/07 00:36:23;;;;;;;7.40;4.80;;;16.90;92.20;;;;;;5073418;28;20027;-73
2023/05/07 00:38:49;;;;;;;7.30;4.70;;;16.90;92.20;;;;;;5073362;28;20369;-73
2023/05/07 00:41:15;;;;;;;7.15;4.97;;;16.80;92.30;;;;;;5073261;28;20084;-73
2023/05/07 00:43:40;;;;;;;8.13;5.05;;;16.70;92.60;;;;;;5073126;28;20133;-73
2023/05/07 00:46:06;;;;;;;5.78;4.50;;;16.70;92.50;;;;;;5055786;28;20026;-73
2023/05/07 00:48:32;;;;;;;5.82;4.50;;;16.70;92.30;;;;;;5073356;28;20029;-73
2023/05/07 00:50:58;;;;;;;6.93;4.68;;;16.60;92.40;;;;;;5073242;28;20090;-73
2023/05/07 00:53:24;;;;;;;5.43;4.45;;;16.60;92.50;;;;;;5073348;28;20025;-73
2023/05/07 00:55:50;;;;;;;5.50;4.05;;;16.60;92.50;;;;;;5073146;28;20044;-73
2023/05/07 00:58:16;;;;;;;6.65;4.55;;;16.60;92.50;;;;;;5072235;28;20029;-73
2023/05/07 01:00:42;;;;;;;6.22;5.00;;;16.60;92.50;;;;;;5072065;28;20021;-73
2023/05/07 01:03:07;;;;;;;8.05;4.78;;;16.60;92.60;;;;;;5073088;28;20032;-73
2023/05/07 01:05:33;;;;;;;6.55;4.85;;;16.60;92.70;;;;;;5071449;28;20089;-73
2023/05/07 01:08:00;;;;;;;6.07;4.95;;;16.60;92.60;;;;;;5073018;28;20036;-73
2023/05/07 01:10:26;;;;;;;8.65;5.18;;;16.60;92.60;;;;;;5072985;28;20028;-73
2023/05/07 01:12:52;;;;;;;8.27;5.57;;;16.60;92.70;;;;;;5071957;28;20025;-73
2023/05/07 01:15:18;;;;;;;9.35;6.22;;;16.60;92.70;;;;;;5072973;28;20027;-73
2023/05/07 01:17:44;;;;;;;10.05;6.38;;;16.60;92.60;;;;;;5071988;28;20025;-73
2023/05/07 01:20:10;;;;;;;8.55;5.47;;;16.60;92.70;;;;;;5072920;28;20079;-73
2023/05/07 01:22:37;;;;;;;9.05;5.15;;;16.70;92.70;;;;;;5072833;28;20029;-73
2023/05/07 01:25:07;;;;;;;8.30;5.63;;;16.60;92.70;;;;;;5072861;28;20026;-73
2023/05/07 01:27:35;;;;;;;7.20;5.45;;;16.60;92.70;;;;;;5072884;28;20025;-73
2023/05/07 01:30:01;;;;;;;9.70;6.18;;;16.60;92.70;;;;;;5071814;28;20029;-73
2023/05/07 01:32:37;;;;;;;10.30;6.53;;;16.60;92.80;;;;;;5072816;28;20025;-73
2023/05/07 01:35:07;;;;;;;9.85;6.60;;;16.60;92.80;;;;;;5072839;28;20063;-73
2023/05/07 01:37:33;;;;;;;11.07;6.22;;;16.60;92.80;;;;;;5072813;28;20025;-73
2023/05/07 01:40:00;;;;;;;11.55;7.25;;;16.60;92.80;;;;;;5055154;28;20037;-73
2023/05/07 01:42:26;;;;;;;10.63;6.68;;;16.70;92.80;;;;;;5072253;28;20067;-74
2023/05/07 01:44:52;;;;;;;9.02;6.25;;;16.70;92.80;;;;;;5072627;28;20040;-73
2023/05/07 01:47:18;;;;;;;10.20;6.82;;;16.70;93.10;;;;;;5071900;28;20045;-73
2023/05/07 01:49:44;;;;;;;9.70;6.90;;;16.60;92.70;;;;;;5072610;28;20064;-73
2023/05/07 01:52:11;;;;;;;8.85;7.13;;;16.70;92.80;;;;;;5072602;28;20025;-73
2023/05/07 01:54:37;;;;;;;11.43;7.78;;;16.60;92.90;;;;;;5072570;28;20021;-73
2023/05/07 01:57:03;;;;;;;10.40;7.05;;;16.60;93.00;;;;;;5071660;28;20032;-74
2023/05/07 01:59:28;;;;;;;12.15;7.15;;;16.60;93.10;;;;;;5071590;28;20033;-73
2023/05/07 02:01:54;;;;;;;10.77;7.70;;;16.60;93.10;;;;;;5072420;28;20550;-73
2023/05/07 02:04:20;;;;;;;11.70;8.27;;;16.70;93.20;;;;;;5071618;28;20022;-73
2023/05/07 02:06:45;;;;;;;11.63;8.88;;;16.70;93.20;;;;;;5072454;28;20017;-73
2023/05/07 02:09:11;;;;;;;12.35;8.63;;;16.70;93.30;;;;;;5072466;28;20087;-74
2023/05/07 02:11:37;;;;;;;13.15;9.02;;;16.70;93.30;;;;;;5072566;28;20029;-73
2023/05/07 02:14:02;;;;;;;14.68;9.05;;;16.70;93.30;;;;;;5072398;28;20029;-73
2023/05/07 02:16:28;;;;;;;14.40;9.23;;;16.70;93.30;;;;;;5072805;28;20032;-73
2023/05/07 02:18:54;;;;;;;14.02;9.55;;;16.70;93.40;;;;;;5075956;28;20041;-73
2023/05/07 02:21:20;;;;;;;14.15;9.70;;;16.70;93.40;;;;;;5058402;28;20119;-74
2023/05/07 02:23:45;;;;;;;15.95;9.38;;;16.60;93.40;;;;;;5076005;28;20029;-73
2023/05/07 02:26:11;;;;;;;13.65;9.73;;;16.60;93.50;;;;;;5058235;28;20025;-73
2023/05/07 02:28:37;;;;;;;17.08;10.48;;;16.60;93.60;;;;;;5075795;28;20025;-73
2023/05/07 02:31:03;;;;;;;15.70;10.07;;;16.60;93.60;;;;;;5075712;28;20111;-74
2023/05/07 02:33:29;;;;;;;15.48;10.20;;;16.60;93.60;;;;;;5075607;28;20033;-73
2023/05/07 02:35:55;;;;;;;15.45;9.77;;;16.60;93.60;;;;;;5075679;28;20430;-74
2023/05/07 02:38:21;;;;;;;14.43;9.48;;;16.70;93.70;;;;;;5075485;28;20032;-73
2023/05/07 02:40:47;;;;;;;13.93;10.20;;;16.70;93.60;;;;;;5075532;28;20025;-73
2023/05/07 02:43:13;;;;;;;14.48;10.60;;;16.70;93.60;;;;;;5075348;28;20029;-73
2023/05/07 02:45:39;;;;;;;14.18;9.90;;;16.70;93.60;;;;;;5075670;28;20028;-73
2023/05/07 02:48:06;;;;;;;14.30;10.30;;;16.70;93.60;;;;;;5075452;28;20029;-73
2023/05/07 02:50:32;;;;;;;14.98;10.45;;;16.70;93.60;;;;;;5074403;28;20029;-73
2023/05/07 02:52:58;;;;;;;14.02;10.02;;;16.60;93.60;;;;;;5075325;28;20013;-73
2023/05/07 02:55:24;;;;;;;14.95;9.43;;;16.60;93.60;;;;;;5075284;28;20021;-73
2023/05/07 02:57:49;;;;;;;14.88;10.32;;;16.60;93.60;;;;;;5075218;28;20032;-73
2023/05/07 03:00:17;;;;;;;16.48;11.00;;;16.60;93.70;;;;;;5075135;28;20029;-73
2023/05/07 03:02:44;;;;;;;15.48;10.50;;;16.70;93.70;;;;;;5075149;28;20091;-73
2023/05/07 03:05:10;;;;;;;15.40;10.57;;;16.60;93.60;;;;;;5075095;28;20028;-73
2023/05/07 03:07:36;;;;;;;15.90;10.75;;;16.60;93.60;;;;;;5075210;28;20021;-73
2023/05/07 03:10:03;;;;;;;20.73;11.60;;;16.60;93.60;;;;;;5074135;28;20040;-74
2023/05/07 03:12:29;;;;;;;16.60;11.93;;;16.60;93.70;;;;;;5075004;28;20051;-73
2023/05/07 03:14:55;;;;;;;16.70;11.43;;;16.50;93.60;;;;;;5073972;28;20036;-73
2023/05/07 03:17:21;;;;;;;19.83;11.48;;;16.50;93.80;;;;;;5074868;28;20032;-73
2023/05/07 03:19:46;;;;;;;19.67;12.13;;;16.50;93.90;;;;;;5074842;28;20021;-73
2023/05/07 03:22:12;;;;;;;19.08;11.73;;;16.50;94.00;;;;;;5073765;28;20044;-73
2023/05/07 03:24:38;;;;;;;17.52;11.52;;;16.50;94.00;;;;;;5073772;28;20036;-73
2023/05/07 03:27:03;;;;;;;17.27;11.85;;;16.50;94.00;;;;;;5074450;28;20044;-73
2023/05/07 03:29:29;;;;;;;16.45;10.95;;;16.50;94.00;;;;;;5074340;28;20035;-74
2023/05/07 03:31:55;;;;;;;16.13;11.55;;;16.50;94.00;;;;;;5073754;28;20029;-73
2023/05/07 03:34:22;;;;;;;16.00;11.27;;;16.50;94.00;;;;;;5074464;28;20030;-73
2023/05/07 03:36:51;;;;;;;18.85;12.55;;;16.50;94.00;;;;;;5073591;28;20028;-73
2023/05/07 03:39:16;;;;;;;17.30;12.10;;;16.50;94.20;;;;;;5074485;28;20052;-73
2023/05/07 03:41:42;;;;;;;18.83;12.68;;;16.50;94.20;;;;;;5073319;28;20025;-73
2023/05/07 03:44:08;;;;;;;17.73;11.93;;;16.50;94.20;;;;;;5074125;28;20056;-73
2023/05/07 03:46:34;;;;;;;18.75;12.25;;;16.50;94.30;;;;;;5074340;28;20049;-73
2023/05/07 03:48:59;;;;;;;19.67;13.13;;;16.50;94.30;;;;;;5074273;28;20080;-73
2023/05/07 03:51:25;;;;;;;21.60;13.95;;;16.50;94.30;;;;;;5074190;28;20040;-73
2023/05/07 03:53:52;;;;;;;20.00;13.77;;;16.40;94.40;;;;;;5074193;28;20088;-73
2023/05/07 03:56:18;;;;;;;20.98;13.70;;;16.40;94.50;;;;;;5073091;28;20029;-73
2023/05/07 03:58:44;;;;;;;23.05;14.68;;;16.40;94.50;;;;;;5074058;28;20036;-73
2023/05/07 04:01:10;;;;;;;22.48;14.05;;;16.40;94.60;;;;;;5073985;28;20025;-73
2023/05/07 04:03:36;;;;;;;21.35;13.68;;;16.30;94.60;;;;;;5074014;28;20025;-73
2023/05/07 04:06:01;;;;;;;21.80;14.82;;;16.30;94.60;;;;;;5073953;28;20025;-73
2023/05/07 04:08:27;;;;;;;21.70;14.38;;;16.30;94.60;;;;;;5073885;28;20031;-73
2023/05/07 04:10:57;;;;;;;20.27;13.98;;;16.30;94.60;;;;;;5072919;28;20048;-73
2023/05/07 04:13:22;;;;;;;22.20;14.43;;;16.30;94.70;;;;;;5073845;28;20037;-73
2023/05/07 04:15:49;;;;;;;20.77;13.98;;;16.30;94.70;;;;;;5072884;28;20092;-73
2023/05/07 04:18:15;;;;;;;20.70;13.98;;;16.30;94.80;;;;;;5073739;28;20048;-73
2023/05/07 04:20:41;;;;;;;21.00;14.05;;;16.30;94.80;;;;;;5072677;28;20039;-73
2023/05/07 04:23:07;;;;;;;20.25;14.15;;;16.30;94.80;;;;;;5072663;28;20053;-73
2023/05/07 04:25:33;;;;;;;21.63;13.48;;;16.30;94.80;;;;;;5073594;28;20028;-73
2023/05/07 04:27:58;;;;;;;20.67;13.95;;;16.30;94.80;;;;;;5072650;28;20032;-73
2023/05/07 04:30:24;;;;;;;22.35;14.65;;;16.30;94.80;;;;;;5073592;28;20029;-73
2023/05/07 04:32:50;;;;;;;20.27;13.68;;;16.30;94.90;;;;;;5072517;28;20029;-74
2023/05/07 04:35:16;;;;;;;24.27;14.65;;;16.30;95.00;;;;;;5073377;28;20060;-73
2023/05/07 04:37:42;;;;;;;21.75;14.50;;;16.30;95.00;;;;;;5072464;28;20017;-73
2023/05/07 04:40:07;;;;;;;24.90;15.68;;;16.40;95.10;;;;;;5054962;28;20036;-74
2023/05/07 04:42:33;;;;;;;23.65;15.30;;;16.30;95.10;;;;;;5072290;28;20033;-73
2023/05/07 04:44:59;;;;;;;23.98;15.15;;;16.30;95.10;;;;;;5073204;28;20073;-73
2023/05/07 04:47:25;;;;;;;24.13;15.18;;;16.30;95.10;;;;;;5073263;28;20020;-73
2023/05/07 04:49:51;;;;;;;22.75;14.70;;;16.20;95.10;;;;;;5073208;28;20029;-73
2023/05/07 04:52:16;;;;;;;24.50;15.00;;;16.30;95.20;;;;;;5073199;28;20087;-73
2023/05/07 04:54:42;;;;;;;23.50;14.68;;;16.20;95.20;;;;;;5072156;28;20059;-73
2023/05/07 04:57:08;;;;;;;24.20;16.08;;;16.20;95.30;;;;;;5072268;28;20029;-73
2023/05/07 04:59:33;;;;;;;24.10;15.68;;;16.20;95.30;;;;;;5072142;28;20036;-73
2023/05/07 05:01:59;;;;;;;23.38;15.23;;;16.20;95.40;;;;;;5072991;28;20063;-73
2023/05/07 05:04:25;;;;;;;24.00;15.35;;;16.20;95.50;;;;;;5055545;28;20050;-73
2023/05/07 05:06:51;;;;;;;26.17;15.57;;;16.20;95.50;;;;;;5073041;28;20032;-73
2023/05/07 05:09:16;;;;;;;21.70;15.02;;;16.20;95.50;;;;;;5072063;28;20029;-73
2023/05/07 05:11:42;;;;;;;23.05;15.30;;;16.20;95.60;;;;;;5072950;28;20032;-73
2023/05/07 05:14:07;;;;;;;24.90;14.93;;;16.20;95.60;;;;;;5072904;28;20040;-73
2023/05/07 05:16:33;;;;;;;22.30;15.68;;;16.20;95.60;;;;;;5072941;28;20029;-74
2023/05/07 05:18:59;;;;;;;24.42;15.65;;;16.20;95.70;;;;;;5072906;28;20037;-74
2023/05/07 05:21:25;;;;;;;23.42;15.32;;;16.20;95.80;;;;;;5072955;28;20033;-74
2023/05/07 05:23:51;;;;;;;21.33;14.88;;;16.20;95.90;;;;;;5073014;28;20032;-74
2023/05/07 05:26:17;;;;;;;26.83;15.70;;;16.20;95.90;;;;;;5072069;28;20027;-74
2023/05/07 05:28:43;;;;;;;23.83;16.23;;;16.20;96.00;;;;;;5072869;28;20041;-74
2023/05/07 05:31:08;;;;;;;24.88;15.85;;;16.20;96.00;;;;;;5072783;28;20048;-73
2023/05/07 05:33:34;;;;;;;24.83;15.93;;;16.20;96.20;;;;;;5072759;28;20048;-73
2023/05/07 05:36:00;;;;;;;25.35;15.65;;;16.20;96.10;;;;;;5071801;28;20035;-74
2023/05/07 05:38:25;;;;;;;25.00;15.38;;;16.20;96.10;;;;;;5072892;28;20477;-73
2023/05/07 05:40:51;;;;;;;25.33;15.65;;;16.20;96.20;;;;;;5072671;28;20033;-74
2023/05/07 05:43:17;;;;;;;24.50;15.80;;;16.20;96.30;;;;;;5072531;28;20052;-73
2023/05/07 05:45:42;;;;;;;28.02;16.58;;;16.10;96.50;;;;;;5072826;28;20029;-73
2023/05/07 05:48:08;;;;;;;26.33;16.05;;;16.20;96.60;;;;;;5071721;28;20036;-74
2023/05/07 05:50:36;;;;;;;26.10;16.60;;;16.20;96.70;;;;;;5072351;28;20036;-74
2023/05/07 05:53:02;;;;;;;26.17;16.80;;;16.30;96.80;;;;;;5075457;28;20021;-74
2023/05/07 05:55:27;;;;;;;27.48;16.48;;;16.30;96.70;;;;;;5076437;28;20022;-74
2023/05/07 05:57:53;;;;;;;29.10;18.52;;;16.30;96.70;;;;;;5076343;28;20396;-74
2023/05/07 06:00:22;;;;;;;26.48;16.50;;;16.40;96.70;;;;;;5076335;28;20029;-74
2023/05/07 06:02:48;;;;;;;25.67;16.10;;;16.40;96.70;;;;;;5076336;28;20028;-74
2023/05/07 06:05:13;;;;;;;24.05;15.02;;;16.50;96.70;;;;;;5075306;28;20063;-74
2023/05/07 06:07:39;;;;;;;24.90;15.82;;;16.50;96.60;;;;;;5075178;28;20021;-73
2023/05/07 06:10:06;;;;;;;26.95;17.00;;;16.50;96.50;;;;;;5076150;28;20025;-74
2023/05/07 06:12:32;;;;;;;26.30;15.07;;;16.60;96.40;;;;;;5076250;28;20060;-74
2023/05/07 06:14:57;;;;;;;23.77;15.52;;;16.60;96.40;;;;;;5074997;28;20025;-74
2023/05/07 06:17:23;;;;;;;22.98;14.73;;;16.60;96.40;;;;;;5076157;28;20033;-74
2023/05/07 06:19:49;;;;;;;26.75;16.70;;;16.60;96.40;;;;;;5075967;28;20036;-74
2023/05/07 06:22:14;;;;;;;26.02;15.10;;;16.60;96.50;;;;;;5075936;28;20039;-74
2023/05/07 06:24:40;;;;;;;24.65;16.25;;;16.70;96.50;;;;;;5075904;28;20022;-74
2023/05/07 06:27:06;;;;;;;23.17;15.95;;;16.70;96.50;;;;;;5075828;28;20103;-74
2023/05/07 06:29:33;;;;;;;25.25;15.73;;;16.70;96.40;;;;;;5074845;28;20021;-75
2023/05/07 06:32:09;;;;;;;23.75;15.13;;;16.70;96.50;;;;;;5075908;28;20032;-73
2023/05/07 06:34:36;;;;;;;22.65;14.80;;;16.80;96.50;;;;;;5075708;28;20104;-74
2023/05/07 06:37:02;;;;;;;23.92;15.35;;;16.80;96.40;;;;;;5074666;28;20032;-74
2023/05/07 06:39:27;;;;;;;23.27;15.38;;;16.80;96.40;;;;;;5074636;28;20409;-74
2023/05/07 06:41:54;;;;;;;23.63;15.25;;;16.80;96.30;;;;;;5074438;28;20036;-74
2023/05/07 06:44:19;;;;;;;24.40;16.02;;;16.80;96.40;;;;;;5075383;28;20057;-74
2023/05/07 06:46:45;;;;;;;21.00;14.80;;;16.90;96.40;;;;;;5075482;28;20085;-74
2023/05/07 06:49:13;;;;;;;25.00;15.68;;;16.90;96.40;;;;;;5075546;28;20112;-74
2023/05/07 06:51:39;;;;;;;24.55;15.82;;;16.90;96.40;;;;;;5075346;28;20059;-74
2023/05/07 06:54:05;;;;;;;24.38;15.40;;;17.00;96.30;;;;;;5075370;28;20033;-75
2023/05/07 06:56:31;;;;;;;23.92;16.00;;;17.00;96.40;;;;;;5074148;28;20025;-74
2023/05/07 06:58:57;;;;;;;22.30;14.73;;;17.00;96.40;;;;;;5057450;28;20021;-74
2023/05/07 07:01:23;;;;;;;23.08;15.32;;;17.00;96.40;;;;;;5075015;28;20040;-74
2023/05/07 07:03:48;;;;;;;21.95;14.68;;;17.10;96.50;;;;;;5074330;28;20028;-74
2023/05/07 07:06:14;;;;;;;23.23;14.50;;;17.00;96.40;;;;;;5074161;28;20037;-74
2023/05/07 07:08:39;;;;;;;23.10;15.32;;;17.10;96.40;;;;;;5075068;28;20021;-74
2023/05/07 07:11:06;;;;;;;21.95;14.77;;;17.10;96.40;;;;;;5075142;28;20037;-74
2023/05/07 07:13:31;;;;;;;21.02;14.45;;;17.10;96.40;;;;;;5074108;28;20056;-73
2023/05/07 07:15:57;;;;;;;23.13;14.75;;;17.10;96.40;;;;;;5075019;28;20029;-74
2023/05/07 07:18:23;;;;;;;22.63;14.68;;;17.10;96.50;;;;;;5074894;28;20029;-74
2023/05/07 07:20:48;;;;;;;21.55;14.38;;;17.20;96.40;;;;;;5073833;28;20060;-73
2023/05/07 07:23:14;;;;;;;23.50;14.68;;;17.20;96.40;;;;;;5074780;28;20029;-73
2023/05/07 07:25:40;;;;;;;22.92;14.15;;;17.20;96.40;;;;;;5074716;28;20116;-74
2023/05/07 07:28:06;;;;;;;20.08;13.40;;;17.20;96.40;;;;;;5074714;28;20025;-74
2023/05/07 07:30:31;;;;;;;20.67;13.70;;;17.20;96.30;;;;;;5074638;28;20025;-73
2023/05/07 07:33:02;;;;;;;21.70;13.10;;;17.20;96.30;;;;;;5074631;28;20040;-74
2023/05/07 07:35:31;;;;;;;21.58;14.00;;;17.30;96.40;;;;;;5073567;28;20120;-74
2023/05/07 07:37:57;;;;;;;19.15;12.88;;;17.30;96.40;;;;;;5073622;28;20084;-73
2023/05/07 07:40:22;;;;;;;19.45;12.82;;;17.40;96.30;;;;;;5073535;28;20028;-74
2023/05/07 07:42:48;;;;;;;21.90;14.02;;;17.40;96.20;;;;;;5073428;28;20108;-74
2023/05/07 07:45:14;;;;;;;21.60;13.35;;;17.40;96.20;;;;;;5074208;28;20112;-73
2023/05/07 07:47:40;;;;;;;19.85;12.85;;;17.30;95.90;;;;;;5073268;28;20093;-73
2023/05/07 07:50:07;;;;;;;20.05;13.13;;;17.40;96.20;;;;;;5074271;28;20044;-73
2023/05/07 07:52:33;;;;;;;22.27;13.63;;;17.40;95.80;;;;;;5074214;28;20029;-74
2023/05/07 07:54:59;;;;;;;18.13;11.75;;;17.40;95.80;;;;;;5074157;28;20088;-74
2023/05/07 07:57:24;;;;;;;20.77;12.50;;;17.30;96.00;;;;;;5074104;28;20055;-73
2023/05/07 07:59:50;;;;;;;17.88;12.18;;;17.40;95.90;;;;;;5074103;28;20037;-73
2023/05/07 08:02:17;;;;;;;21.63;12.75;;;17.40;95.90;;;;;;5073946;28;20032;-74
2023/05/07 08:04:43;;;;;;;22.63;13.25;;;17.40;96.00;;;;;;5056409;28;20022;-73
2023/05/07 08:07:09;;;;;;;20.13;12.95;;;17.50;96.10;;;;;;5073957;28;20025;-73
2023/05/07 08:09:36;;;;;;;19.80;13.15;;;17.50;96.10;;;;;;5073897;28;20028;-74
2023/05/07 08:12:02;;;;;;;20.42;12.38;;;17.50;96.10;;;;;;5073829;28;20036;-73
2023/05/07 08:14:28;;;;;;;18.52;12.88;;;17.60;96.10;;;;;;5072785;28;20092;-74
2023/05/07 08:16:54;;;;;;;18.05;11.88;;;17.70;95.90;;;;;;5073762;28;20060;-74
2023/05/07 08:19:21;;;;;;;18.08;12.80;;;17.70;95.90;;;;;;5073674;28;20025;-74
2023/05/07 08:21:47;;;;;;;18.42;12.00;;;17.70;95.90;;;;;;5072752;28;20034;-74
2023/05/07 08:24:14;;;;;;;19.95;12.00;;;17.80;95.70;;;;;;5073652;28;20037;-74
2023/05/07 08:26:40;;;;;;;17.00;11.30;;;17.80;95.50;;;;;;5072570;28;20025;-74
2023/05/07 08:29:05;;;;;;;19.13;12.30;;;17.80;95.20;;;;;;5072552;28;20036;-74
2023/05/07 08:31:31;;;;;;;17.13;12.30;;;17.80;95.30;;;;;;5073530;28;20096;-74
2023/05/07 08:34:00;;;;;;;16.67;12.07;;;17.90;95.50;;;;;;5072465;28;20021;-74
2023/05/07 08:36:26;;;;;;;18.02;12.60;;;18.00;95.70;;;;;;5073430;28;20029;-73
2023/05/07 08:38:52;;;;;;;16.92;11.75;;;18.10;95.70;;;;;;5073340;28;20029;-74
2023/05/07 08:41:18;;;;;;;17.02;11.40;;;18.20;95.70;;;;;;5073452;28;20031;-74
2023/05/07 08:43:49;;;;;;;17.15;11.93;;;18.20;95.40;;;;;;5072237;28;20049;-74
2023/05/07 08:46:19;;;;;;;17.30;11.80;;;18.10;94.40;;;;;;5055776;28;20056;-73
2023/05/07 08:48:47;;;;;;;18.33;12.30;;;18.30;95.00;;;;;;5073297;28;20036;-74
2023/05/07 08:51:15;;;;;;;16.85;11.88;;;18.40;95.30;;;;;;5073247;28;20021;-73
2023/05/07 08:53:42;;;;;;;17.17;11.80;;;18.60;94.90;;;;;;5073161;28;20033;-73
2023/05/07 08:56:11;;;;;;;15.13;11.05;;;18.70;94.40;;;;;;5073089;28;20050;-74
2023/05/07 08:58:37;;;;;;;14.77;11.27;;;18.70;94.30;;;;;;5073172;28;20039;-74
2023/05/07 09:01:15;;;;;;;15.95;11.60;;;18.80;94.50;;;;;;5072021;28;20036;-74
2023/05/07 09:03:43;;;;;;;18.88;11.40;;;18.90;94.30;;;;;;5073086;28;20051;-74
2023/05/07 09:06:09;;;;;;;16.48;11.77;;;19.00;94.00;;;;;;5073043;28;20025;-73
2023/05/07 09:08:36;;;;;;;16.30;11.00;;;19.10;93.60;;;;;;5073029;28;20021;-74
2023/05/07 09:11:02;;;;;;;22.30;11.27;;;19.10;93.70;;;;;;5071931;28;20093;-74
2023/05/07 09:13:28;;;;;;;13.98;11.23;;;19.30;93.90;;;;;;5072961;28;20036;-74
2023/05/07 09:15:54;;;;;;;16.27;10.68;;;19.30;93.20;;;;;;5071911;28;20017;-74
2023/05/07 09:18:20;;;;;;;15.55;11.38;;;19.40;93.20;;;;;;5072941;28;20075;-74
2023/05/07 09:20:46;;;;;;;18.88;12.38;;;19.50;93.50;;;;;;5072895;28;20025;-74
2023/05/07 09:23:11;;;;;;;16.75;12.82;;;19.50;93.10;;;;;;5055328;28;20037;-74
2023/05/07 09:25:37;;;;;;;17.42;12.70;;;19.60;92.70;;;;;;5055939;28;20025;-74
2023/05/07 09:28:06;;;;;;;15.52;12.15;;;19.50;93.00;;;;;;5076948;28;20032;-74
2023/05/07 09:30:33;;;;;;;16.70;12.30;;;19.60;93.20;;;;;;5076923;28;20079;-74
2023/05/07 09:33:00;;;;;;;17.02;11.23;;;19.70;93.40;;;;;;5076791;28;20025;-74
2023/05/07 09:35:27;;;;;;;16.58;11.30;;;19.70;92.40;;;;;;5076737;28;20028;-74
2023/05/07 09:37:57;;;;;;;16.77;12.02;;;19.60;91.90;;;;;;5076815;28;20151;-74
2023/05/07 09:40:27;;;;;;;15.35;10.57;;;19.60;92.40;;;;;;5076753;28;20112;-74
2023/05/07 09:42:53;;;;;;;14.75;11.55;;;19.70;92.80;;;;;;5076522;28;20100;-74
2023/05/07 09:45:26;;;;;;;14.93;11.13;;;19.80;92.40;;;;;;5075698;28;20025;-74
2023/05/07 09:47:55;;;;;;;13.15;10.10;;;19.90;91.90;;;;;;5076549;28;20035;-74
2023/05/07 09:50:28;;;;;;;16.60;10.88;;;19.80;91.70;;;;;;5076510;28;20025;-74
2023/05/07 09:52:57;;;;;;;16.23;11.30;;;19.80;91.90;;;;;;5076532;28;20052;-74
2023/05/07 09:55:23;;;;;;;13.93;10.23;;;19.80;92.00;;;;;;5076441;28;20158;-74
2023/05/07 09:57:53;;;;;;;13.00;9.88;;;19.80;91.90;;;;;;5076395;28;20029;-74
2023/05/07 10:00:21;;;;;;;13.93;10.05;;;19.80;91.40;;;;;;5076358;28;20028;-74
2023/05/07 10:02:51;;;;;;;16.20;10.45;;;19.80;91.20;;;;;;5076247;28;20020;-74
2023/05/07 10:05:21;;;;;;;15.20;9.57;;;19.80;91.30;;;;;;5076447;28;20032;-74
2023/05/07 10:07:48;;;;;;;15.23;10.23;;;19.80;91.80;;;;;;5076273;28;20026;-74
2023/05/07 10:10:15;;;;;;;13.70;10.02;;;19.90;91.70;;;;;;5076179;28;20085;-74
2023/05/07 10:12:41;;;;;;;16.00;10.18;;;19.90;91.50;;;;;;5076131;28;20025;-74
2023/05/07 10:15:08;;;;;;;13.50;9.75;;;20.00;91.90;;;;;;5076257;28;20036;-74
2023/05/07 10:17:37;;;;;;;15.88;9.35;;;20.00;91.20;;;;;;5076093;28;20028;-74
2023/05/07 10:20:04;;;;;;;14.00;9.90;;;20.00;90.80;;;;;;5075224;28;20029;-74
2023/05/07 10:22:44;;;;;;;11.95;9.27;;;20.00;90.50;;;;;;5074943;28;20035;-74
2023/05/07 10:25:22;;;;;;;11.65;9.00;;;20.00;91.00;;;;;;5075916;28;20025;-74
2023/05/07 10:27:50;;;;;;;13.38;9.88;;;20.10;91.00;;;;;;5074918;28;20028;-74
2023/05/07 10:30:54;;;;;;;12.15;8.90;;;20.10;90.80;;;;;;5075881;28;20033;-74
2023/05/07 10:33:25;;;;;;;12.20;8.57;;;20.10;90.80;;;;;;5074643;28;20031;-74
2023/05/07 10:35:50;;;;;;;12.73;8.63;;;20.20;91.30;;;;;;5075751;28;20021;-74
2023/05/07 10:38:16;;;;;;;12.77;8.68;;;20.20;91.30;;;;;;5073555;28;20057;-74
2023/05/07 10:40:43;;;;;;;12.85;9.40;;;20.30;91.60;;;;;;5075511;28;20032;-74
2023/05/07 10:43:08;;;;;;;13.32;9.48;;;20.40;91.80;;;;;;5075369;28;20031;-74
2023/05/07 10:45:34;;;;;;;13.25;9.70;;;20.40;91.70;;;;;;5075572;28;20025;-74
2023/05/07 10:48:17;;;;;;;12.48;10.00;;;20.50;91.60;;;;;;5075458;28;20047;-74
2023/05/07 10:50:45;;;;;;;11.10;8.38;;;20.50;91.70;;;;;;5075412;28;20025;-74
2023/05/07 10:53:24;;;;;;;13.27;9.13;;;20.50;90.70;;;;;;5075395;28;20024;-74
2023/05/07 10:55:50;;;;;;;11.75;8.68;;;20.50;90.90;;;;;;5075383;28;20029;-74
2023/05/07 10:58:26;;;;;;;14.50;8.38;;;20.60;91.10;;;;;;5074483;28;20036;-74
2023/05/07 11:00:57;;;;;;;11.20;7.80;;;20.60;90.00;;;;;;5075152;28;20116;-74
2023/05/07 11:03:22;;;;;;;10.65;8.23;;;20.70;90.40;;;;;;5075200;28;20104;-74
2023/05/07 11:06:12;;;;;;;10.52;7.40;;;20.70;88.30;;;;;;5057417;28;20032;-74
2023/05/07 11:08:52;;;;;;;11.38;8.60;;;20.80;89.70;;;;;;5074377;28;20029;-74
2023/05/07 11:11:19;;;;;;;10.40;7.53;;;20.80;90.00;;;;;;5074095;28;20025;-74
2023/05/07 11:13:46;;;;;;;10.75;7.47;;;20.80;90.00;;;;;;5073985;28;20029;-74
2023/05/07 11:16:23;;;;;;;10.68;8.13;;;20.90;90.10;;;;;;5074025;28;20029;-74
2023/05/07 11:18:49;;;;;;;11.48;7.65;;;20.90;90.00;;;;;;5074868;28;20028;-74
2023/05/07 11:21:33;;;;;;;11.50;8.00;;;20.90;90.20;;;;;;5074794;28;20100;-74
2023/05/07 11:24:00;;;;;;;10.63;7.38;;;21.00;89.80;;;;;;5074826;28;20021;-74
2023/05/07 11:26:27;;;;;;;9.50;7.05;;;21.00;88.90;;;;;;5073765;28;20017;-74
2023/05/07 11:28:54;;;;;;;9.80;6.88;;;21.00;88.80;;;;;;5074703;28;20025;-74
2023/05/07 11:31:25;;;;;;;10.20;7.03;;;21.10;88.80;;;;;;5074677;28;20043;-74
2023/05/07 11:33:52;;;;;;;9.40;6.55;;;21.10;88.90;;;;;;5074562;28;20029;-74
2023/05/07 11:36:18;;;;;;;8.38;6.18;;;21.20;88.70;;;;;;5073673;28;20071;-74
2023/05/07 11:38:44;;;;;;;9.82;6.53;;;21.30;87.90;;;;;;5074508;28;20021;-74
2023/05/07 11:41:10;;;;;;;8.05;5.55;;;21.30;87.40;;;;;;5073336;28;20055;-74
2023/05/07 11:43:36;;;;;;;6.50;5.35;;;21.30;86.80;;;;;;5073189;28;20073;-74
2023/05/07 11:46:12;;;;;;;7.07;5.63;;;21.40;86.80;;;;;;5074373;28;20025;-74
2023/05/07 11:48:38;;;;;;;9.25;6.80;;;21.60;86.20;;;;;;5073963;28;20029;-74
2023/05/07 11:51:08;;;;;;;8.18;6.43;;;21.60;85.30;;;;;;5074234;28;20024;-74
2023/05/07 11:53:39;;;;;;;10.02;5.88;;;21.50;83.40;;;;;;5074240;28;20059;-74
2023/05/07 11:56:15;;;;;;;8.35;5.55;;;21.60;85.30;;;;;;5074255;28;20025;-74
2023/05/07 11:58:42;;;;;;;7.43;5.38;;;21.70;84.30;;;;;;5074187;28;20029;-74
2023/05/07 12:01:09;;;;;;;7.97;5.65;;;21.80;85.00;;;;;;5072945;28;20052;-74
2023/05/07 12:03:37;;;;;;;8.63;5.55;;;21.90;85.00;;;;;;5074036;28;20465;-74
2023/05/07 12:06:05;;;;;;;7.20;4.82;;;21.90;83.50;;;;;;5074049;28;20017;-74
2023/05/07 12:08:30;;;;;;;8.80;5.63;;;21.90;83.70;;;;;;5073039;28;20017;-74
2023/05/07 12:10:56;;;;;;;6.97;5.10;;;21.90;82.80;;;;;;5073906;28;20542;-74
2023/05/07 12:13:26;;;;;;;6.53;4.85;;;21.90;83.20;;;;;;5073825;28;20047;-74
2023/05/07 12:15:52;;;;;;;7.20;4.68;;;21.80;81.90;;;;;;5073893;28;20039;-74
2023/05/07 12:18:20;;;;;;;8.45;5.90;;;21.90;82.30;;;;;;5072830;28;20028;-74
2023/05/07 12:20:46;;;;;;;7.82;6.07;;;21.80;80.00;;;;;;5073630;28;20472;-74
2023/05/07 12:23:12;;;;;;;10.98;6.65;;;21.70;79.30;;;;;;5073658;28;20108;-74
2023/05/07 12:25:46;;;;;;;7.72;6.50;;;21.50;78.30;;;;;;5073669;28;20021;-74
2023/05/07 12:28:16;;;;;;;6.68;4.88;;;21.50;79.80;;;;;;5072620;28;20027;-74
2023/05/07 12:30:43;;;;;;;8.38;5.13;;;21.60;81.00;;;;;;5072597;28;20055;-74
2023/05/07 12:33:09;;;;;;;7.70;6.50;;;21.70;81.50;;;;;;5072517;28;20189;-74